Terminal Aerodrome Forecast
Issued by NWS Cleveland, OH

Home | Current Version | Previous Version | Graphics & Text | Print | Product List | Glossary On
Versions: 1 2 3 4 5 6 7 8 9 10 11 12 13 14 15 16
588
FTUS41 KCLE 031130
TAFMFD
TAF
KMFD 031130Z 0312/0412 VRB03KT 4SM BR OVC060
     FM031300 34005KT P6SM BKN060
     FM040000 VRB03KT P6SM BKN250
     FM040800 22008KT P6SM OVC100
     FM041100 20008KT P6SM -SHRA OVC035=

USA.gov is the U.S. government's official web portal to all federal, state and local government web resources and services.